Terminal Aerodrome Forecast
Issued by NWS

Home | Current Version | Previous Version | Text Only | Print | Product List | Glossary On
Versions: 1 2 3 4 5 6 7 8 9 10 11 12 13 14 15 16 17 18
000
FTUS43 KSGF 231120
TAFJLN
TAF
KJLN 231120Z 2312/2412 VRB04KT P6SM SCT250
     FM231400 16007KT P6SM SCT050
     FM231700 15008KT P6SM VCTS SCT050CB PROB30 2321/2401 4SM TSRA
      BKN050CB
     FM240500 15005KT P6SM BKN250=

USA.gov is the U.S. government's official web portal to all federal, state and local government web resources and services.